Time;durP1;ratioP1;P1;durP2;ratioP2;P2;SDS_P1;SDS_P2;PMS_P1;PMS_P2;Temp;Humidity;BMP_temperature;BMP_pressure;BME280_temperature;BME280_humidity;BME280_pressure;Samples;Min_cycle;Max_cycle;Signal;HPM_P1;HPM_P2
2023/07/22 00:00:47;;;;;;;2.20;1.67;;;21.30;54.30;;;;;;5038219;28;20564;-79
2023/07/22 00:03:13;;;;;;;2.33;1.83;;;21.20;54.30;;;;;;5038378;28;20091;-79
2023/07/22 00:05:40;;;;;;;2.97;2.08;;;21.20;54.30;;;;;;5039066;28;20032;-78
2023/07/22 00:08:05;;;;;;;2.58;1.90;;;21.20;54.40;;;;;;5054883;28;20039;-79
2023/07/22 00:10:31;;;;;;;3.28;2.05;;;21.10;54.40;;;;;;5038757;28;20037;-78
2023/07/22 00:12:57;;;;;;;2.92;2.20;;;21.10;54.40;;;;;;5055037;28;20036;-80
2023/07/22 00:15:24;;;;;;;3.30;2.17;;;21.10;54.50;;;;;;5072582;28;20496;-78
2023/07/22 00:17:51;;;;;;;2.85;1.92;;;21.10;54.50;;;;;;5038789;28;20032;-79
2023/07/22 00:20:18;;;;;;;3.42;2.25;;;21.00;54.50;;;;;;5039165;28;20028;-79
2023/07/22 00:22:43;;;;;;;3.53;2.20;;;21.00;54.60;;;;;;5074335;28;20381;-79
2023/07/22 00:25:11;;;;;;;3.10;2.33;;;21.00;54.60;;;;;;5057609;28;20028;-79
2023/07/22 00:27:41;;;;;;;3.22;2.00;;;20.90;54.60;;;;;;5058502;28;20042;-78
2023/07/22 00:30:08;;;;;;;3.05;2.42;;;20.90;54.70;;;;;;5058452;28;20469;-78
2023/07/22 00:32:37;;;;;;;2.60;2.10;;;20.90;54.70;;;;;;5058352;28;20036;-78
2023/07/22 00:35:05;;;;;;;3.10;2.20;;;20.90;54.80;;;;;;5058270;28;20040;-78
2023/07/22 00:37:32;;;;;;;3.60;2.38;;;20.80;54.80;;;;;;5058266;28;20078;-78
2023/07/22 00:39:57;;;;;;;3.42;2.40;;;20.80;54.80;;;;;;5042350;28;20037;-78
2023/07/22 00:42:24;;;;;;;4.07;2.60;;;20.80;54.80;;;;;;5074864;28;20487;-78
2023/07/22 00:44:50;;;;;;;2.72;2.28;;;20.80;54.90;;;;;;5058496;28;20439;-78
2023/07/22 00:47:16;;;;;;;3.10;2.30;;;20.70;54.90;;;;;;5008807;28;20033;-78
2023/07/22 00:49:42;;;;;;;3.35;2.35;;;20.70;55.00;;;;;;5041930;28;20093;-78
2023/07/22 00:52:08;;;;;;;4.07;2.80;;;20.60;54.90;;;;;;5025690;28;20033;-78
2023/07/22 00:54:34;;;;;;;3.33;2.45;;;20.60;55.00;;;;;;5076027;28;20029;-79
2023/07/22 00:57:00;;;;;;;4.07;2.90;;;20.60;55.10;;;;;;5008726;28;20036;-79
2023/07/22 00:59:26;;;;;;;4.30;2.88;;;20.60;55.10;;;;;;5058012;28;20408;-78
2023/07/22 01:01:52;;;;;;;4.03;2.88;;;20.60;55.10;;;;;;5040980;28;20036;-78
2023/07/22 01:04:19;;;;;;;3.75;2.70;;;20.50;55.10;;;;;;5058028;28;20536;-79
2023/07/22 01:06:46;;;;;;;4.28;2.72;;;20.50;55.20;;;;;;5041086;28;20032;-79
2023/07/22 01:09:13;;;;;;;4.07;3.15;;;20.40;55.10;;;;;;5041338;28;20091;-79
2023/07/22 01:11:39;;;;;;;3.67;2.72;;;20.40;55.20;;;;;;5008309;28;20033;-78
2023/07/22 01:14:05;;;;;;;4.30;3.00;;;20.40;55.30;;;;;;5057304;28;20038;-78
2023/07/22 01:16:31;;;;;;;4.00;2.80;;;20.40;55.30;;;;;;5041721;28;20056;-79
2023/07/22 01:18:57;;;;;;;5.13;3.17;;;20.30;55.40;;;;;;5041273;28;20036;-80
2023/07/22 01:21:24;;;;;;;4.60;3.13;;;20.30;55.40;;;;;;5057458;28;20033;-78
2023/07/22 01:23:50;;;;;;;4.22;2.85;;;20.30;55.50;;;;;;5057619;28;20074;-79
2023/07/22 01:26:17;;;;;;;5.13;2.88;;;20.30;55.50;;;;;;5041239;28;20128;-78
2023/07/22 01:28:43;;;;;;;4.07;2.72;;;20.30;55.60;;;;;;5074974;28;20033;-79
2023/07/22 01:31:09;;;;;;;4.55;3.10;;;20.20;55.60;;;;;;5075338;28;20056;-79
2023/07/22 01:33:35;;;;;;;4.45;3.10;;;20.20;55.60;;;;;;5057285;28;20035;-78
2023/07/22 01:36:01;;;;;;;4.68;3.25;;;20.20;55.70;;;;;;5056050;28;20460;-78
2023/07/22 01:38:29;;;;;;;4.25;2.88;;;20.20;56.40;;;;;;5057368;28;20025;-78
2023/07/22 01:40:55;;;;;;;3.97;2.83;;;20.10;55.70;;;;;;5040379;28;20032;-79
2023/07/22 01:43:21;;;;;;;4.30;2.90;;;20.10;55.80;;;;;;5056697;28;20131;-78
2023/07/22 01:45:47;;;;;;;5.22;3.33;;;20.10;55.80;;;;;;5024110;28;20122;-79
2023/07/22 01:48:13;;;;;;;4.70;3.25;;;20.10;55.90;;;;;;5056687;28;20029;-78
2023/07/22 01:50:38;;;;;;;4.60;3.22;;;20.00;55.90;;;;;;5040547;28;20039;-78
2023/07/22 01:53:05;;;;;;;4.88;3.33;;;20.00;55.90;;;;;;5040443;28;20480;-78
2023/07/22 01:55:32;;;;;;;5.30;3.25;;;20.00;56.00;;;;;;5074286;28;20052;-78
2023/07/22 01:57:58;;;;;;;4.85;3.60;;;20.00;56.10;;;;;;5039844;28;20040;-78
2023/07/22 02:00:24;;;;;;;4.90;3.20;;;20.00;56.10;;;;;;5040404;28;20078;-78
2023/07/22 02:02:50;;;;;;;5.57;3.35;;;20.00;56.10;;;;;;5039841;28;20102;-79
2023/07/22 02:05:16;;;;;;;4.63;3.20;;;19.90;56.10;;;;;;5041134;28;20127;-79
2023/07/22 02:07:42;;;;;;;4.95;3.80;;;19.90;56.10;;;;;;5039895;28;20032;-80
2023/07/22 02:10:09;;;;;;;5.20;3.28;;;20.00;56.20;;;;;;5056465;28;20024;-78
2023/07/22 02:12:35;;;;;;;5.53;3.63;;;19.90;56.30;;;;;;5008214;28;20062;-78
2023/07/22 02:15:02;;;;;;;4.88;3.20;;;19.90;56.30;;;;;;5039716;28;20068;-79
2023/07/22 02:17:30;;;;;;;4.65;3.20;;;19.90;56.40;;;;;;5040075;28;20079;-78
2023/07/22 02:19:57;;;;;;;5.22;3.67;;;19.90;56.40;;;;;;5039768;28;20123;-79
2023/07/22 02:22:23;;;;;;;5.07;3.53;;;19.90;56.40;;;;;;5056548;28;20024;-79
2023/07/22 02:24:49;;;;;;;4.68;3.28;;;19.80;56.40;;;;;;5039669;28;20389;-78
2023/07/22 02:27:14;;;;;;;5.68;3.85;;;19.80;56.40;;;;;;5056126;28;20036;-79
2023/07/22 02:29:40;;;;;;;5.28;3.60;;;19.80;56.50;;;;;;5055978;28;20033;-78
2023/07/22 02:32:06;;;;;;;5.60;3.58;;;19.80;56.50;;;;;;5039558;28;20054;-78
2023/07/22 02:34:32;;;;;;;4.75;3.47;;;19.70;56.50;;;;;;5056111;28;20024;-78
2023/07/22 02:36:58;;;;;;;4.93;3.55;;;19.70;56.50;;;;;;5056186;28;20090;-79
2023/07/22 02:39:24;;;;;;;5.25;3.83;;;19.70;56.50;;;;;;5056022;28;20529;-79
2023/07/22 02:41:49;;;;;;;5.28;3.70;;;19.70;56.50;;;;;;5056119;28;20033;-78
2023/07/22 02:44:15;;;;;;;5.45;4.03;;;19.70;56.60;;;;;;5074023;28;20032;-79
2023/07/22 02:46:41;;;;;;;5.40;3.72;;;19.70;56.70;;;;;;5056648;28;20067;-79
2023/07/22 02:49:07;;;;;;;5.15;3.75;;;19.60;56.70;;;;;;5039361;28;20045;-79
2023/07/22 02:51:33;;;;;;;5.50;3.88;;;19.60;56.70;;;;;;5056532;28;20067;-78
2023/07/22 02:53:59;;;;;;;5.78;4.45;;;19.60;56.80;;;;;;5039301;28;20033;-79
2023/07/22 02:56:24;;;;;;;6.25;4.35;;;19.60;56.80;;;;;;5055382;28;20451;-79
2023/07/22 02:58:50;;;;;;;7.00;4.47;;;19.60;56.80;;;;;;5055656;28;20451;-78
2023/07/22 03:01:16;;;;;;;5.85;3.92;;;19.50;56.80;;;;;;5039254;28;20415;-80
2023/07/22 03:03:42;;;;;;;5.07;3.65;;;19.50;56.80;;;;;;5039033;28;20390;-79
2023/07/22 03:06:09;;;;;;;6.45;4.05;;;19.50;56.90;;;;;;5055690;28;20024;-79
2023/07/22 03:08:35;;;;;;;5.90;4.05;;;19.50;56.90;;;;;;5039792;28;20081;-78
2023/07/22 03:11:01;;;;;;;6.45;4.32;;;19.50;57.00;;;;;;5023670;28;20116;-79
2023/07/22 03:13:30;;;;;;;5.90;4.40;;;19.50;57.00;;;;;;5073637;28;20060;-80
2023/07/22 03:15:56;;;;;;;5.68;4.28;;;19.50;57.00;;;;;;5056244;28;20075;-77
2023/07/22 03:18:22;;;;;;;6.68;4.20;;;19.40;57.00;;;;;;5039446;28;20560;-79
2023/07/22 03:20:48;;;;;;;5.10;3.67;;;19.40;57.10;;;;;;5055700;28;20025;-77
2023/07/22 03:23:14;;;;;;;5.53;3.85;;;19.40;57.10;;;;;;5055716;28;20348;-80
2023/07/22 03:25:41;;;;;;;6.57;4.63;;;19.40;57.20;;;;;;5055419;28;20021;-78
2023/07/22 03:28:07;;;;;;;6.00;4.20;;;19.30;57.20;;;;;;5039562;28;20403;-78
2023/07/22 03:30:34;;;;;;;5.72;3.97;;;19.30;57.20;;;;;;5055615;28;20098;-78
2023/07/22 03:33:00;;;;;;;6.10;4.47;;;19.30;57.20;;;;;;5073762;28;20418;-78
2023/07/22 03:35:27;;;;;;;6.70;4.82;;;19.30;57.20;;;;;;5055635;28;20024;-78
2023/07/22 03:37:52;;;;;;;6.00;4.55;;;19.30;57.30;;;;;;5055089;28;20064;-78
2023/07/22 03:40:26;;;;;;;6.05;4.38;;;19.30;57.20;;;;;;5072505;28;20516;-78
2023/07/22 03:42:53;;;;;;;5.70;4.20;;;19.20;57.20;;;;;;5039925;28;20041;-78
2023/07/22 03:45:21;;;;;;;5.75;4.18;;;19.20;57.30;;;;;;5038745;28;20032;-78
2023/07/22 03:47:50;;;;;;;6.07;4.25;;;19.20;57.30;;;;;;5055036;28;20032;-78
2023/07/22 03:50:16;;;;;;;6.40;4.43;;;19.20;57.30;;;;;;5073092;28;20021;-80
2023/07/22 03:52:41;;;;;;;6.13;4.63;;;19.20;57.40;;;;;;5054688;28;20123;-79
2023/07/22 03:55:08;;;;;;;6.50;4.68;;;19.10;57.30;;;;;;5055038;28;20044;-79
2023/07/22 03:57:34;;;;;;;6.47;4.60;;;19.10;57.40;;;;;;5055660;28;20036;-79
2023/07/22 04:00:01;;;;;;;5.82;4.18;;;19.10;57.40;;;;;;5057574;28;20032;-79
2023/07/22 04:02:27;;;;;;;5.72;3.92;;;19.10;57.50;;;;;;5058706;28;20558;-80
2023/07/22 04:04:56;;;;;;;6.45;4.55;;;19.10;57.50;;;;;;5042407;28;20067;-79
2023/07/22 04:07:22;;;;;;;5.80;4.50;;;19.10;57.60;;;;;;5042313;28;20477;-78
2023/07/22 04:09:48;;;;;;;6.13;4.18;;;19.10;57.50;;;;;;5026135;28;20042;-78
2023/07/22 04:12:14;;;;;;;6.60;4.55;;;19.00;57.60;;;;;;5059001;28;20420;-79
2023/07/22 04:14:40;;;;;;;6.53;5.15;;;19.00;57.60;;;;;;5042051;28;20029;-79
2023/07/22 04:17:06;;;;;;;5.70;4.28;;;19.00;57.70;;;;;;5059333;28;20086;-77
2023/07/22 04:19:32;;;;;;;6.10;4.05;;;19.00;57.70;;;;;;5042909;28;20032;-78
2023/07/22 04:21:59;;;;;;;6.88;5.13;;;19.00;57.70;;;;;;5058644;28;20035;-78
2023/07/22 04:24:28;;;;;;;6.65;4.82;;;19.00;57.70;;;;;;5042057;28;20028;-80
2023/07/22 04:26:53;;;;;;;6.43;4.35;;;18.90;57.70;;;;;;5042226;28;20029;-78
2023/07/22 04:29:19;;;;;;;6.60;4.32;;;18.90;57.80;;;;;;5041907;28;20039;-78
2023/07/22 04:31:45;;;;;;;6.95;4.78;;;18.90;57.80;;;;;;5058328;28;20032;-79
2023/07/22 04:34:12;;;;;;;6.82;4.85;;;18.90;57.90;;;;;;5042460;28;20471;-78
2023/07/22 04:36:38;;;;;;;6.32;4.78;;;18.80;57.90;;;;;;5058370;28;20032;-79
2023/07/22 04:39:07;;;;;;;6.43;4.75;;;18.90;57.90;;;;;;5041860;28;20052;-77
2023/07/22 04:41:33;;;;;;;7.03;4.53;;;18.80;57.90;;;;;;5042253;28;20033;-79
2023/07/22 04:43:59;;;;;;;6.50;4.80;;;18.90;58.60;;;;;;5058398;28;20059;-78
2023/07/22 04:46:26;;;;;;;6.90;4.75;;;18.80;57.90;;;;;;5058569;28;20044;-78
2023/07/22 04:48:55;;;;;;;6.63;4.65;;;18.80;58.00;;;;;;5058286;28;20032;-78
2023/07/22 04:51:20;;;;;;;7.07;5.07;;;18.80;58.00;;;;;;5058200;28;20020;-78
2023/07/22 04:53:46;;;;;;;6.85;5.00;;;18.80;58.00;;;;;;5058698;28;20036;-78
2023/07/22 04:56:12;;;;;;;7.18;5.13;;;18.80;58.00;;;;;;5041315;28;20115;-79
2023/07/22 04:58:38;;;;;;;7.60;4.93;;;18.80;58.00;;;;;;5041389;28;20487;-78
2023/07/22 05:01:04;;;;;;;7.25;4.70;;;18.80;58.10;;;;;;5058308;28;20029;-80
2023/07/22 05:03:30;;;;;;;7.90;4.95;;;18.80;58.10;;;;;;5037534;28;20061;-77
2023/07/22 05:05:57;;;;;;;6.95;4.78;;;18.80;58.10;;;;;;5037563;28;20503;-79
2023/07/22 05:08:23;;;;;;;6.63;4.68;;;18.80;58.20;;;;;;5054755;28;20037;-78
2023/07/22 05:10:49;;;;;;;8.40;5.25;;;18.80;58.30;;;;;;5054608;28;20033;-78
2023/07/22 05:13:16;;;;;;;6.50;4.63;;;18.80;58.20;;;;;;5037759;28;20474;-80
2023/07/22 05:15:42;;;;;;;5.97;4.32;;;18.80;58.20;;;;;;5038173;28;20073;-79
2023/07/22 05:18:08;;;;;;;6.47;4.85;;;18.70;58.20;;;;;;5054341;28;20140;-79
2023/07/22 05:20:33;;;;;;;6.50;4.78;;;18.80;58.30;;;;;;5055814;28;20032;-78
2023/07/22 05:22:59;;;;;;;7.00;4.95;;;18.80;58.30;;;;;;5055050;28;20064;-79
2023/07/22 05:25:25;;;;;;;6.45;4.53;;;18.80;58.30;;;;;;5005354;28;20033;-79
2023/07/22 05:27:51;;;;;;;7.35;5.07;;;18.80;58.30;;;;;;5038360;28;20044;-80
2023/07/22 05:30:16;;;;;;;6.63;4.72;;;18.80;58.40;;;;;;5054422;28;20029;-79
2023/07/22 05:32:42;;;;;;;6.97;4.75;;;18.70;58.30;;;;;;5038601;28;20043;-79
2023/07/22 05:35:08;;;;;;;7.13;5.15;;;18.80;58.40;;;;;;5037661;28;20088;-80
2023/07/22 05:37:34;;;;;;;6.90;4.82;;;18.80;58.40;;;;;;5054837;28;20381;-79
2023/07/22 05:40:01;;;;;;;6.85;4.85;;;18.80;58.40;;;;;;5021237;28;20029;-80
2023/07/22 05:42:28;;;;;;;6.47;4.72;;;18.70;58.40;;;;;;5054070;28;20029;-79
2023/07/22 05:44:58;;;;;;;6.38;4.50;;;18.80;58.40;;;;;;5053920;28;20047;-79
2023/07/22 05:47:24;;;;;;;7.13;5.20;;;18.80;58.50;;;;;;5037544;28;20040;-79
2023/07/22 05:49:50;;;;;;;6.38;4.85;;;18.80;58.40;;;;;;5037156;28;20033;-78
2023/07/22 05:52:15;;;;;;;6.65;5.00;;;18.80;58.40;;;;;;5039223;28;20410;-78
2023/07/22 05:54:41;;;;;;;7.60;5.40;;;18.80;58.40;;;;;;5038153;28;20068;-78
2023/07/22 05:57:08;;;;;;;6.95;5.03;;;18.80;58.50;;;;;;5037077;28;20445;-79
2023/07/22 05:59:36;;;;;;;6.85;4.90;;;18.80;58.40;;;;;;5004841;28;20123;-79
2023/07/22 06:02:03;;;;;;;7.57;5.60;;;18.90;58.50;;;;;;5053695;28;20087;-80
2023/07/22 06:04:28;;;;;;;6.68;4.78;;;18.80;58.40;;;;;;5053444;28;20049;-80
2023/07/22 06:06:54;;;;;;;6.65;4.63;;;18.80;58.50;;;;;;5053856;28;20541;-80
2023/07/22 06:09:21;;;;;;;6.72;4.70;;;18.90;58.50;;;;;;5053738;28;20033;-79
2023/07/22 06:11:46;;;;;;;9.80;5.22;;;18.90;58.50;;;;;;5037571;28;20037;-79
2023/07/22 06:14:12;;;;;;;7.65;4.97;;;18.90;58.70;;;;;;5053026;28;20448;-79
2023/07/22 06:16:38;;;;;;;7.03;4.60;;;18.90;58.50;;;;;;5036603;28;20041;-80
2023/07/22 06:19:04;;;;;;;6.63;4.97;;;18.90;58.50;;;;;;5037022;28;20033;-80
2023/07/22 06:21:30;;;;;;;6.88;4.93;;;18.90;58.50;;;;;;5053616;28;20473;-77
2023/07/22 06:23:56;;;;;;;7.10;4.93;;;18.90;58.50;;;;;;5053155;28;20079;-80
2023/07/22 06:26:22;;;;;;;6.63;4.57;;;19.00;58.60;;;;;;5036484;28;20422;-79
2023/07/22 06:28:47;;;;;;;6.85;5.10;;;19.00;58.60;;;;;;5036357;28;20040;-79
2023/07/22 06:31:13;;;;;;;6.75;4.75;;;19.00;58.50;;;;;;5053955;28;20056;-79
2023/07/22 06:33:39;;;;;;;6.95;4.95;;;19.10;58.60;;;;;;5036559;28;20029;-79
2023/07/22 06:36:05;;;;;;;6.90;4.75;;;19.10;58.60;;;;;;5036442;28;20033;-78
2023/07/22 06:38:30;;;;;;;7.60;5.50;;;19.10;58.50;;;;;;5052824;28;20036;-77
2023/07/22 06:40:57;;;;;;;7.15;4.85;;;19.10;58.60;;;;;;5053343;28;20416;-79
2023/07/22 06:43:23;;;;;;;8.35;5.15;;;19.10;58.60;;;;;;5054229;28;20146;-78
2023/07/22 06:45:49;;;;;;;6.22;4.53;;;19.20;58.60;;;;;;5036058;28;20461;-79
2023/07/22 06:48:14;;;;;;;6.97;4.90;;;19.20;58.50;;;;;;5036165;28;20037;-78
2023/07/22 06:50:46;;;;;;;6.32;4.28;;;19.20;58.50;;;;;;5052753;28;20033;-77
2023/07/22 06:53:14;;;;;;;6.32;4.50;;;19.20;58.50;;;;;;5052716;28;20029;-78
2023/07/22 06:55:47;;;;;;;6.82;4.70;;;19.20;58.40;;;;;;5053585;28;20466;-77
2023/07/22 06:58:13;;;;;;;6.38;4.43;;;19.30;58.50;;;;;;5052829;28;20485;-78
2023/07/22 07:00:39;;;;;;;6.47;4.45;;;19.30;58.40;;;;;;5053822;28;20025;-78
2023/07/22 07:03:04;;;;;;;6.78;4.82;;;19.30;58.40;;;;;;5038037;28;20056;-78
2023/07/22 07:05:30;;;;;;;5.97;4.22;;;19.40;58.40;;;;;;5039725;28;20499;-76
2023/07/22 07:07:56;;;;;;;6.60;4.55;;;19.40;58.40;;;;;;5039194;28;20064;-78
2023/07/22 07:10:22;;;;;;;6.82;4.50;;;19.40;58.40;;;;;;5055706;28;20040;-77
2023/07/22 07:12:47;;;;;;;6.22;4.70;;;19.50;58.40;;;;;;5055445;28;20090;-78
2023/07/22 07:15:13;;;;;;;6.78;4.85;;;19.50;58.30;;;;;;5055600;28;20033;-76
2023/07/22 07:17:39;;;;;;;6.72;4.55;;;19.50;58.30;;;;;;5056076;28;20040;-77
2023/07/22 07:20:05;;;;;;;5.60;4.10;;;19.50;58.30;;;;;;5039349;28;20029;-80
2023/07/22 07:22:31;;;;;;;5.80;3.92;;;19.60;58.30;;;;;;5055336;28;20036;-76
2023/07/22 07:24:57;;;;;;;5.68;4.07;;;19.60;58.30;;;;;;5055308;28;20029;-76
2023/07/22 07:27:22;;;;;;;6.18;4.45;;;19.70;58.30;;;;;;5022665;28;20066;-76
2023/07/22 07:29:48;;;;;;;6.95;4.50;;;19.70;58.40;;;;;;5038749;28;20086;-76
2023/07/22 07:32:14;;;;;;;5.85;3.95;;;19.70;58.30;;;;;;5074180;28;20028;-77
2023/07/22 07:34:40;;;;;;;6.50;4.40;;;19.80;58.30;;;;;;5038607;28;20036;-79
2023/07/22 07:37:06;;;;;;;6.88;4.22;;;19.80;58.20;;;;;;5055606;28;20048;-78
2023/07/22 07:39:32;;;;;;;5.50;4.05;;;19.80;58.30;;;;;;5073326;28;20127;-77
2023/07/22 07:41:57;;;;;;;5.68;3.97;;;19.90;58.20;;;;;;5038647;28;20124;-77
2023/07/22 07:44:23;;;;;;;6.50;4.25;;;19.90;58.20;;;;;;5055193;28;20035;-78
2023/07/22 07:46:49;;;;;;;5.55;3.75;;;19.90;58.10;;;;;;5056190;28;20048;-76
2023/07/22 07:49:15;;;;;;;6.43;4.20;;;20.00;58.10;;;;;;5038806;28;20411;-76
2023/07/22 07:51:42;;;;;;;5.70;3.80;;;20.00;58.00;;;;;;5038636;28;20028;-77
2023/07/22 07:54:08;;;;;;;5.15;3.75;;;20.10;58.00;;;;;;5038765;28;20032;-77
2023/07/22 07:56:33;;;;;;;6.07;3.88;;;20.10;58.00;;;;;;5038414;28;20481;-78
2023/07/22 07:58:59;;;;;;;5.70;3.92;;;20.20;57.90;;;;;;5056333;28;20040;-78
2023/07/22 08:01:25;;;;;;;5.72;3.85;;;20.20;57.80;;;;;;5038548;28;20025;-77
2023/07/22 08:03:51;;;;;;;5.47;3.92;;;20.30;58.40;;;;;;5054967;28;20052;-77
2023/07/22 08:06:17;;;;;;;6.95;4.15;;;20.30;57.70;;;;;;5038345;28;20591;-77
2023/07/22 08:08:43;;;;;;;5.90;3.92;;;20.40;57.70;;;;;;5038793;28;20551;-77
2023/07/22 08:11:11;;;;;;;4.93;3.70;;;20.40;57.60;;;;;;5055036;28;20033;-77
2023/07/22 08:13:37;;;;;;;5.32;3.92;;;20.40;57.50;;;;;;5055218;28;20465;-77
2023/07/22 08:16:04;;;;;;;5.70;3.88;;;20.50;57.50;;;;;;5038509;28;20033;-78
2023/07/22 08:18:31;;;;;;;5.45;3.50;;;20.60;57.40;;;;;;5072663;28;20093;-78
2023/07/22 08:20:57;;;;;;;5.00;3.70;;;20.70;57.40;;;;;;5038395;28;20167;-76
2023/07/22 08:23:23;;;;;;;5.18;3.67;;;20.70;57.30;;;;;;5073192;28;20025;-76
2023/07/22 08:25:49;;;;;;;5.28;3.40;;;20.80;57.40;;;;;;5055005;28;20024;-77
2023/07/22 08:28:15;;;;;;;4.30;3.03;;;20.80;57.20;;;;;;5038259;28;20480;-76
2023/07/22 08:30:42;;;;;;;4.82;3.47;;;20.90;57.10;;;;;;5038542;28;20029;-79
2023/07/22 08:33:14;;;;;;;4.65;3.22;;;20.90;57.10;;;;;;5038412;28;20033;-78
2023/07/22 08:35:40;;;;;;;4.88;3.08;;;21.00;57.10;;;;;;5038947;28;20127;-78
2023/07/22 08:38:07;;;;;;;4.78;3.20;;;21.00;57.00;;;;;;5055086;28;20090;-79
2023/07/22 08:40:39;;;;;;;4.90;3.38;;;21.10;57.00;;;;;;5038395;28;20035;-79
2023/07/22 08:43:07;;;;;;;4.60;3.20;;;21.10;57.00;;;;;;5054913;28;20024;-80
2023/07/22 08:45:36;;;;;;;4.53;3.20;;;21.20;57.00;;;;;;5074193;28;20033;-80
2023/07/22 08:48:13;;;;;;;4.50;3.03;;;21.20;56.90;;;;;;5058434;28;20033;-78
2023/07/22 08:50:46;;;;;;;4.45;3.08;;;21.30;57.00;;;;;;5058708;28;20033;-80
2023/07/22 08:53:15;;;;;;;4.65;3.40;;;21.30;56.90;;;;;;5058419;28;20032;-78
2023/07/22 08:55:42;;;;;;;4.53;3.13;;;21.40;56.90;;;;;;5041628;28;20075;-79
2023/07/22 08:58:09;;;;;;;4.53;3.08;;;21.40;56.90;;;;;;5058252;28;20033;-77
2023/07/22 09:00:36;;;;;;;4.63;3.17;;;21.40;56.80;;;;;;5058276;28;20423;-79
2023/07/22 09:03:02;;;;;;;4.90;3.33;;;21.50;56.80;;;;;;5058487;28;20028;-78
2023/07/22 09:05:31;;;;;;;4.82;3.40;;;21.50;56.70;;;;;;5058204;28;20052;-79
2023/07/22 09:07:57;;;;;;;4.03;2.88;;;21.60;56.80;;;;;;5041416;28;20086;-79
2023/07/22 09:10:26;;;;;;;4.35;3.25;;;21.60;56.70;;;;;;5058781;28;20036;-78
2023/07/22 09:12:53;;;;;;;4.97;3.38;;;21.60;56.60;;;;;;5042115;28;20028;-79
2023/07/22 09:15:19;;;;;;;4.57;3.05;;;21.70;56.60;;;;;;5041546;28;20037;-78
2023/07/22 09:17:45;;;;;;;4.80;3.30;;;21.80;56.60;;;;;;5058019;28;20044;-79
2023/07/22 09:20:14;;;;;;;4.85;3.03;;;21.80;56.60;;;;;;5041647;28;20063;-79
2023/07/22 09:22:48;;;;;;;4.10;2.90;;;21.90;56.80;;;;;;5058053;28;20032;-79
2023/07/22 09:25:15;;;;;;;4.10;2.97;;;21.90;56.50;;;;;;5057391;28;20063;-79
2023/07/22 09:27:42;;;;;;;4.78;3.08;;;21.90;56.40;;;;;;5057476;28;20025;-79
2023/07/22 09:30:33;;;;;;;4.90;3.30;;;22.00;56.40;;;;;;5040987;28;20090;-79
2023/07/22 09:33:01;;;;;;;4.25;2.85;;;22.00;56.40;;;;;;5057910;28;20334;-78
2023/07/22 09:35:43;;;;;;;3.60;2.58;;;22.10;56.30;;;;;;5040845;28;20028;-79
2023/07/22 09:38:09;;;;;;;3.90;2.80;;;22.10;56.20;;;;;;5058424;28;20071;-78
2023/07/22 09:40:35;;;;;;;4.18;2.78;;;22.10;56.10;;;;;;5040397;28;20033;-80
2023/07/22 09:43:03;;;;;;;4.43;2.85;;;22.20;56.10;;;;;;5075360;28;20024;-78
2023/07/22 09:45:31;;;;;;;4.13;2.70;;;22.20;56.00;;;;;;5057652;28;20123;-79
2023/07/22 09:47:58;;;;;;;4.38;3.13;;;22.20;56.00;;;;;;5057148;28;20036;-78
2023/07/22 09:50:25;;;;;;;4.13;2.90;;;22.30;56.00;;;;;;5075883;28;20040;-78
2023/07/22 09:52:55;;;;;;;4.75;2.92;;;22.30;56.10;;;;;;5041215;28;20108;-77
2023/07/22 09:55:23;;;;;;;3.78;2.65;;;22.40;55.90;;;;;;5073653;28;20024;-79
2023/07/22 09:57:58;;;;;;;4.03;2.58;;;22.40;55.90;;;;;;5056343;28;20067;-78
2023/07/22 10:00:27;;;;;;;4.07;2.65;;;22.40;55.90;;;;;;5057277;28;20107;-78
2023/07/22 10:02:56;;;;;;;4.18;2.42;;;22.50;55.80;;;;;;5040776;28;20024;-79
2023/07/22 10:05:22;;;;;;;3.13;2.20;;;22.50;55.80;;;;;;5056555;28;20554;-79
2023/07/22 10:07:56;;;;;;;4.22;2.78;;;22.50;55.70;;;;;;5056888;28;20028;-79
2023/07/22 10:10:25;;;;;;;3.43;2.43;;;22.60;55.70;;;;;;5056887;28;20123;-79
2023/07/22 10:12:53;;;;;;;3.40;2.28;;;22.60;55.60;;;;;;5056552;28;20312;-78
2023/07/22 10:15:19;;;;;;;3.80;2.47;;;22.70;55.60;;;;;;5056838;28;20198;-79
2023/07/22 10:17:46;;;;;;;3.95;2.45;;;22.70;55.50;;;;;;5057573;28;20041;-79
2023/07/22 10:20:16;;;;;;;4.88;2.83;;;22.80;55.50;;;;;;5056687;28;20039;-80
2023/07/22 10:22:46;;;;;;;3.25;2.38;;;22.80;55.40;;;;;;5039933;28;20036;-79
2023/07/22 10:25:14;;;;;;;3.30;2.25;;;22.90;55.40;;;;;;5074200;28;20599;-79
2023/07/22 10:27:41;;;;;;;4.00;2.67;;;22.90;55.40;;;;;;5074189;28;20040;-79
2023/07/22 10:30:12;;;;;;;3.22;2.17;;;23.00;55.40;;;;;;5056614;28;20103;-80
2023/07/22 10:32:47;;;;;;;2.80;2.10;;;23.00;55.30;;;;;;5040485;28;20102;-79
2023/07/22 10:35:34;;;;;;;3.53;2.30;;;23.10;55.30;;;;;;5056913;28;20021;-80
2023/07/22 10:38:16;;;;;;;3.70;2.30;;;23.10;55.30;;;;;;5074047;28;20123;-79
2023/07/22 10:40:46;;;;;;;3.28;2.25;;;23.10;55.30;;;;;;5056519;28;20025;-79
2023/07/22 10:43:12;;;;;;;3.88;2.45;;;23.20;55.20;;;;;;5056267;28;20036;-79
2023/07/22 10:45:51;;;;;;;3.33;2.13;;;23.20;55.20;;;;;;5056463;28;20074;-79
2023/07/22 10:48:18;;;;;;;2.88;2.05;;;23.30;55.20;;;;;;5040441;28;20036;-79
2023/07/22 10:50:49;;;;;;;3.33;2.03;;;23.30;55.10;;;;;;5074327;28;20028;-79
2023/07/22 10:53:24;;;;;;;2.75;2.00;;;23.30;55.10;;;;;;5073801;28;20025;-79
2023/07/22 10:56:08;;;;;;;3.17;2.30;;;23.40;55.10;;;;;;5056514;28;20099;-79
2023/07/22 10:58:53;;;;;;;3.47;2.17;;;23.40;55.10;;;;;;5056083;28;20481;-79
2023/07/22 11:01:28;;;;;;;2.65;1.92;;;23.50;55.10;;;;;;5073634;28;20397;-79
2023/07/22 11:04:30;;;;;;;2.67;2.00;;;23.50;55.00;;;;;;5073099;28;20060;-79
2023/07/22 11:06:57;;;;;;;3.22;2.08;;;23.50;55.00;;;;;;5056140;28;20068;-79
2023/07/22 11:09:30;;;;;;;2.47;1.83;;;23.60;54.90;;;;;;5055678;28;20123;-80
2023/07/22 11:12:17;;;;;;;2.88;2.03;;;23.70;54.90;;;;;;5055616;28;20101;-79
2023/07/22 11:14:51;;;;;;;3.17;2.25;;;23.70;54.90;;;;;;5055652;28;20027;-79
2023/07/22 11:17:18;;;;;;;2.85;1.92;;;23.70;54.80;;;;;;5073290;28;20036;-80
2023/07/22 11:19:45;;;;;;;2.00;1.80;;;23.80;55.50;;;;;;5055920;28;20036;-79
2023/07/22 11:22:10;;;;;;;3.22;2.15;;;23.80;54.80;;;;;;5055674;28;20028;-80
2023/07/22 11:24:37;;;;;;;2.97;2.10;;;23.80;54.70;;;;;;5072414;28;20025;-79
2023/07/22 11:27:08;;;;;;;2.88;1.83;;;23.80;54.70;;;;;;5039569;28;20040;-79
2023/07/22 11:29:34;;;;;;;2.13;1.80;;;23.80;54.70;;;;;;5055341;28;20086;-79
2023/07/22 11:32:01;;;;;;;2.60;1.85;;;23.90;54.70;;;;;;5039250;28;20091;-80
2023/07/22 11:34:27;;;;;;;3.08;2.10;;;23.90;54.70;;;;;;5055830;28;20503;-80
2023/07/22 11:36:54;;;;;;;2.25;1.95;;;23.90;54.60;;;;;;5039002;28;20458;-80
2023/07/22 11:39:23;;;;;;;2.97;1.98;;;23.90;54.60;;;;;;5055183;28;20029;-79
2023/07/22 11:41:50;;;;;;;2.60;2.05;;;23.90;54.60;;;;;;5073129;28;20028;-79
2023/07/22 11:44:17;;;;;;;2.92;1.85;;;24.00;54.70;;;;;;5073183;28;20051;-79
2023/07/22 11:46:57;;;;;;;2.40;1.80;;;23.90;54.60;;;;;;5073325;28;20473;-80
2023/07/22 11:49:26;;;;;;;3.25;1.92;;;24.00;54.70;;;;;;5055376;28;20381;-79
2023/07/22 11:51:56;;;;;;;2.80;2.05;;;24.00;54.70;;;;;;5055801;28;20032;-80
2023/07/22 11:54:23;;;;;;;2.35;1.48;;;24.00;54.70;;;;;;5038677;28;20040;-80
2023/07/22 11:56:48;;;;;;;2.40;1.70;;;24.00;54.60;;;;;;5038522;28;20047;-79
2023/07/22 11:59:14;;;;;;;2.63;1.90;;;24.00;54.60;;;;;;5071587;28;20032;-79
2023/07/22 12:01:44;;;;;;;2.72;1.80;;;24.00;54.60;;;;;;5022057;28;20082;-79
2023/07/22 12:04:11;;;;;;;2.20;1.80;;;24.00;54.60;;;;;;5055093;28;20062;-80
2023/07/22 12:06:37;;;;;;;3.35;1.90;;;24.00;54.60;;;;;;5055565;28;20036;-82
2023/07/22 12:09:03;;;;;;;3.10;1.85;;;24.00;54.60;;;;;;5022899;28;20063;-79
2023/07/22 12:11:32;;;;;;;2.92;1.85;;;24.00;54.60;;;;;;5055877;28;20381;-79
2023/07/22 12:14:13;;;;;;;3.05;2.05;;;24.00;54.60;;;;;;5055090;28;20124;-80
2023/07/22 12:16:41;;;;;;;1.90;1.58;;;24.00;54.60;;;;;;5055424;28;20495;-80
2023/07/22 12:19:08;;;;;;;1.92;1.60;;;24.10;54.60;;;;;;5038468;28;20047;-79
2023/07/22 12:21:35;;;;;;;2.13;1.60;;;24.00;54.60;;;;;;5076373;28;20037;-80
2023/07/22 12:24:01;;;;;;;2.42;1.70;;;24.00;54.60;;;;;;5042028;28;20039;-79
2023/07/22 12:26:27;;;;;;;2.50;1.67;;;24.00;54.50;;;;;;5042950;28;20035;-79
2023/07/22 12:28:53;;;;;;;1.88;1.42;;;24.10;54.60;;;;;;5058686;28;20070;-79
2023/07/22 12:31:19;;;;;;;2.40;1.60;;;24.10;54.60;;;;;;5058851;28;20071;-80
2023/07/22 12:33:45;;;;;;;3.13;1.80;;;24.10;54.50;;;;;;5058602;28;20029;-80
2023/07/22 12:36:11;;;;;;;2.63;1.88;;;24.10;55.20;;;;;;5058197;28;20029;-80
2023/07/22 12:38:37;;;;;;;1.90;1.67;;;24.10;54.50;;;;;;5058365;28;20381;-79
2023/07/22 12:41:03;;;;;;;1.75;1.45;;;24.20;54.50;;;;;;5058253;28;20142;-78
2023/07/22 12:43:30;;;;;;;2.45;1.67;;;24.10;54.50;;;;;;5058971;28;20067;-81
2023/07/22 12:45:56;;;;;;;2.53;1.60;;;24.20;54.50;;;;;;5042181;28;20126;-81
2023/07/22 12:48:24;;;;;;;1.42;1.30;;;24.20;54.50;;;;;;5041567;28;20136;-80